sensor_id;sensor_type;location;lat;lon;timestamp;P1;durP1;ratioP1;P2;durP2;ratioP2
13687;SDS011;6916;51.504;7.416;2024-02-21T00:08:47;97.38;;;67.93;;
13687;SDS011;6916;51.504;7.416;2024-02-21T00:23:50;94.13;;;63.13;;
13687;SDS011;6916;51.504;7.416;2024-02-21T00:38:53;82.32;;;56.28;;
13687;SDS011;6916;51.504;7.416;2024-02-21T00:53:56;76.95;;;52.13;;
13687;SDS011;6916;51.504;7.416;2024-02-21T01:08:59;68.43;;;45.80;;
13687;SDS011;6916;51.504;7.416;2024-02-21T01:24:03;63.28;;;42.90;;
13687;SDS011;6916;51.504;7.416;2024-02-21T01:39:06;51.38;;;36.42;;
13687;SDS011;6916;51.504;7.416;2024-02-21T01:54:09;45.05;;;31.92;;
13687;SDS011;6916;51.504;7.416;2024-02-21T02:09:12;40.47;;;29.63;;
13687;SDS011;6916;51.504;7.416;2024-02-21T02:24:15;36.40;;;24.85;;
13687;SDS011;6916;51.504;7.416;2024-02-21T02:39:19;33.08;;;22.58;;
13687;SDS011;6916;51.504;7.416;2024-02-21T02:54:22;30.15;;;20.88;;
13687;SDS011;6916;51.504;7.416;2024-02-21T03:09:25;22.05;;;16.98;;
13687;SDS011;6916;51.504;7.416;2024-02-21T03:24:28;21.88;;;16.08;;
13687;SDS011;6916;51.504;7.416;2024-02-21T03:39:32;22.65;;;15.52;;
13687;SDS011;6916;51.504;7.416;2024-02-21T03:54:35;20.55;;;14.38;;
13687;SDS011;6916;51.504;7.416;2024-02-21T04:09:38;17.48;;;12.27;;
13687;SDS011;6916;51.504;7.416;2024-02-21T04:24:41;16.25;;;11.48;;
13687;SDS011;6916;51.504;7.416;2024-02-21T04:39:44;15.77;;;10.35;;
13687;SDS011;6916;51.504;7.416;2024-02-21T04:54:47;49.00;;;33.78;;
13687;SDS011;6916;51.504;7.416;2024-02-21T05:09:50;82.50;;;53.13;;
13687;SDS011;6916;51.504;7.416;2024-02-21T05:24:53;204.80;;;140.38;;
13687;SDS011;6916;51.504;7.416;2024-02-21T05:39:57;140.50;;;97.60;;
13687;SDS011;6916;51.504;7.416;2024-02-21T05:55:00;154.50;;;103.88;;
13687;SDS011;6916;51.504;7.416;2024-02-21T06:10:03;156.85;;;101.82;;
13687;SDS011;6916;51.504;7.416;2024-02-21T06:25:08;125.63;;;85.50;;
13687;SDS011;6916;51.504;7.416;2024-02-21T06:40:11;121.82;;;76.82;;
13687;SDS011;6916;51.504;7.416;2024-02-21T06:55:14;93.57;;;62.60;;
13687;SDS011;6916;51.504;7.416;2024-02-21T07:10:17;80.03;;;53.22;;
13687;SDS011;6916;51.504;7.416;2024-02-21T07:25:21;67.78;;;47.88;;
13687;SDS011;6916;51.504;7.416;2024-02-21T07:40:24;61.67;;;42.58;;
13687;SDS011;6916;51.504;7.416;2024-02-21T07:55:27;57.65;;;37.85;;
13687;SDS011;6916;51.504;7.416;2024-02-21T08:10:30;44.67;;;30.60;;
13687;SDS011;6916;51.504;7.416;2024-02-21T08:25:33;36.20;;;27.17;;
13687;SDS011;6916;51.504;7.416;2024-02-21T08:40:36;35.88;;;24.48;;
13687;SDS011;6916;51.504;7.416;2024-02-21T08:55:39;30.77;;;21.73;;
13687;SDS011;6916;51.504;7.416;2024-02-21T09:10:43;25.75;;;19.13;;
13687;SDS011;6916;51.504;7.416;2024-02-21T09:25:46;22.15;;;16.65;;
13687;SDS011;6916;51.504;7.416;2024-02-21T09:40:49;22.73;;;15.57;;
13687;SDS011;6916;51.504;7.416;2024-02-21T09:55:56;19.35;;;13.75;;
13687;SDS011;6916;51.504;7.416;2024-02-21T10:11:00;18.23;;;12.55;;
13687;SDS011;6916;51.504;7.416;2024-02-21T10:26:07;15.70;;;11.27;;
13687;SDS011;6916;51.504;7.416;2024-02-21T10:41:10;14.30;;;10.48;;
13687;SDS011;6916;51.504;7.416;2024-02-21T10:56:20;11.88;;;8.90;;
13687;SDS011;6916;51.504;7.416;2024-02-21T11:11:25;10.82;;;8.23;;
13687;SDS011;6916;51.504;7.416;2024-02-21T11:26:29;10.02;;;7.10;;
13687;SDS011;6916;51.504;7.416;2024-02-21T11:41:32;8.52;;;6.30;;
13687;SDS011;6916;51.504;7.416;2024-02-21T11:56:36;6.53;;;5.22;;
13687;SDS011;6916;51.504;7.416;2024-02-21T12:11:39;7.47;;;5.60;;
13687;SDS011;6916;51.504;7.416;2024-02-21T12:26:42;7.07;;;4.53;;
13687;SDS011;6916;51.504;7.416;2024-02-21T12:41:45;5.80;;;4.10;;
13687;SDS011;6916;51.504;7.416;2024-02-21T12:56:48;5.18;;;3.67;;
13687;SDS011;6916;51.504;7.416;2024-02-21T13:11:51;4.78;;;3.83;;
13687;SDS011;6916;51.504;7.416;2024-02-21T13:26:55;4.45;;;3.47;;
13687;SDS011;6916;51.504;7.416;2024-02-21T13:41:58;4.72;;;3.90;;
13687;SDS011;6916;51.504;7.416;2024-02-21T13:57:01;4.22;;;3.13;;
13687;SDS011;6916;51.504;7.416;2024-02-21T14:12:05;4.43;;;2.45;;
13687;SDS011;6916;51.504;7.416;2024-02-21T14:27:09;4.28;;;2.90;;
13687;SDS011;6916;51.504;7.416;2024-02-21T14:42:14;3.83;;;2.80;;
13687;SDS011;6916;51.504;7.416;2024-02-21T14:57:17;3.15;;;2.00;;
13687;SDS011;6916;51.504;7.416;2024-02-21T15:12:22;2.95;;;2.17;;
13687;SDS011;6916;51.504;7.416;2024-02-21T15:27:26;3.17;;;2.03;;
13687;SDS011;6916;51.504;7.416;2024-02-21T15:42:30;19.40;;;12.43;;
13687;SDS011;6916;51.504;7.416;2024-02-21T15:57:34;13.80;;;8.77;;
13687;SDS011;6916;51.504;7.416;2024-02-21T16:12:37;13.40;;;8.02;;
13687;SDS011;6916;51.504;7.416;2024-02-21T16:27:42;42.55;;;28.02;;
13687;SDS011;6916;51.504;7.416;2024-02-21T16:42:45;61.63;;;41.40;;
13687;SDS011;6916;51.504;7.416;2024-02-21T16:57:51;99.15;;;63.95;;
13687;SDS011;6916;51.504;7.416;2024-02-21T17:12:54;109.60;;;71.65;;
13687;SDS011;6916;51.504;7.416;2024-02-21T17:27:57;232.95;;;145.45;;
13687;SDS011;6916;51.504;7.416;2024-02-21T17:43:00;202.93;;;126.20;;
13687;SDS011;6916;51.504;7.416;2024-02-21T17:58:04;259.92;;;160.32;;
13687;SDS011;6916;51.504;7.416;2024-02-21T18:13:08;236.13;;;149.48;;
13687;SDS011;6916;51.504;7.416;2024-02-21T18:28:11;276.45;;;182.95;;
13687;SDS011;6916;51.504;7.416;2024-02-21T18:43:15;287.65;;;186.00;;
13687;SDS011;6916;51.504;7.416;2024-02-21T18:58:19;308.17;;;205.82;;
13687;SDS011;6916;51.504;7.416;2024-02-21T19:13:24;359.95;;;240.05;;
13687;SDS011;6916;51.504;7.416;2024-02-21T19:28:28;307.83;;;204.80;;
13687;SDS011;6916;51.504;7.416;2024-02-21T19:43:31;407.27;;;287.00;;
13687;SDS011;6916;51.504;7.416;2024-02-21T19:58:34;331.47;;;260.10;;
13687;SDS011;6916;51.504;7.416;2024-02-21T20:13:37;227.45;;;149.55;;
13687;SDS011;6916;51.504;7.416;2024-02-21T20:28:42;249.48;;;161.32;;
13687;SDS011;6916;51.504;7.416;2024-02-21T20:43:45;184.00;;;123.38;;
13687;SDS011;6916;51.504;7.416;2024-02-21T20:58:48;143.02;;;93.20;;
13687;SDS011;6916;51.504;7.416;2024-02-21T21:13:52;109.20;;;74.68;;
13687;SDS011;6916;51.504;7.416;2024-02-21T21:28:55;88.20;;;57.65;;
13687;SDS011;6916;51.504;7.416;2024-02-21T21:43:59;66.85;;;46.08;;
13687;SDS011;6916;51.504;7.416;2024-02-21T21:59:02;54.50;;;36.83;;
13687;SDS011;6916;51.504;7.416;2024-02-21T22:14:05;46.50;;;32.13;;
13687;SDS011;6916;51.504;7.416;2024-02-21T22:29:09;40.28;;;27.40;;
13687;SDS011;6916;51.504;7.416;2024-02-21T22:44:13;36.80;;;25.05;;
13687;SDS011;6916;51.504;7.416;2024-02-21T22:59:16;29.75;;;20.73;;
13687;SDS011;6916;51.504;7.416;2024-02-21T23:14:19;26.48;;;18.63;;
13687;SDS011;6916;51.504;7.416;2024-02-21T23:29:22;23.67;;;17.13;;
13687;SDS011;6916;51.504;7.416;2024-02-21T23:44:25;21.67;;;14.52;;
13687;SDS011;6916;51.504;7.416;2024-02-21T23:59:29;18.92;;;13.20;;
